• Join FlightAware (Why Join?)
  • Login
  • US Flag 
06:25AM EST


 

Airport Tracker/Info


-or-


 

Live Flight TrackerFlight Track Log ✈ GGN7280 ✈ 08-Jul-2013 ✈ CYYZ - KALB

Flight Track Log - Related Links

Times and Time Zones

All times are in EDT time to prevent confusion due to time zone crossing. See the GGN7280 flight status page for this flight to view local times or setup timezone preferences in your user account.

Time Position Orientation Groundspeed Altitude Reporting Facility
EDT Latitude Longitude Course Direction KTS MPH feet Rate Location/Type
09:37AM 43.6500 -79.5833 180° South 60 69 800  Level Toronto Center
09:38AM 43.6167 -79.5833 180° South 180 207 1,900 960 Climbing Toronto Center
09:39AM 43.5667 -79.5667 166° South 200 230 2,800 960 Climbing Toronto Center
09:40AM 43.5500 -79.4667 103° East 220 253 3,900 1,020 Climbing Toronto Center
09:41AM 43.5333 -79.4000 109° East 230 265 4,900 720 Climbing Toronto Center
09:42AM 43.5167 -79.3167 105° East 240 276 5,400 660 Climbing Toronto Center
09:43AM 43.5000 -79.2167 103° East 240 276 6,300 780 Climbing Toronto Center
09:44AM 43.4667 -79.1333 119° Southeast 240 276 7,000 840 Climbing Toronto Center
09:45AM 43.4500 -79.0333 103° East 240 276 8,000 900 Climbing Toronto Center
09:46AM 43.4333 -78.9500 105° East 250 288 8,900 480 Climbing Toronto Center
09:47AM 43.4000 -78.8833 125° Southeast 260 299 9,000  Climbing Toronto Center
09:48AM 43.3667 -78.7833 115° Southeast 260 299 9,000  Level Toronto Center
09:49AM 43.3167 -78.7000 129° Southeast 260 299 9,000  Level Toronto Center
09:50AM 43.2833 -78.6333 124° Southeast 260 299 9,000  Level Toronto Center
09:51AM 43.2500 -78.5333 115° Southeast 260 299 9,000  Level Toronto Center
09:52AM 43.1833 -78.4667 144° Southeast 260 299 9,000  Level Toronto Center
09:53AM 43.1500 -78.3833 119° Southeast 260 299 9,000  Level Toronto Center
09:54AM 43.1167 -78.2833 115° Southeast 260 299 9,000  Level Toronto Center
09:55AM 43.0667 -78.2167 136° Southeast 260 299 9,000  Level Toronto Center
09:56AM 43.0333 -78.1333 119° Southeast 260 299 9,000  Level Toronto Center
09:57AM 43.0000 -78.0667 124° Southeast 260 299 9,000  Level Toronto Center
09:58AM 42.9500 -77.9667 124° Southeast 260 299 9,000  Level Toronto Center
09:59AM 42.9167 -77.8833 119° Southeast 260 299 9,000  Level Toronto Center
10:00AM 42.9078 -77.8761 149° Southeast 255 293 9,000  Level Cleveland Center
10:01AM 42.9078 -77.7825 90° East 258 297 9,000  Level Cleveland Center
10:02AM 42.9072 -77.6778 90° East 257 296 9,000  Level Cleveland Center
10:03AM 42.9067 -77.5786 90° East 255 293 9,000  Level Cleveland Center
10:04AM 42.9022 -77.4822 94° East 260 299 9,000  Level Cleveland Center
10:05AM 42.9017 -77.3861 90° East 262 302 9,000  Level Cleveland Center
10:06AM 42.8942 -77.2672 95° East 262 302 9,000  Level Cleveland Center
10:08AM 42.8833 -77.0167 93° East 260 299 9,000  Level Toronto Center
10:09AM 42.8833 -76.9333 90° East 260 299 9,000  Level Toronto Center
10:10AM 42.8833 -76.8167 90° East 260 299 9,000  Level Toronto Center
10:11AM 42.8833 -76.7167 90° East 260 299 9,000  Level Toronto Center
10:12AM 42.8667 -76.6333 105° East 260 299 9,000  Level Toronto Center
10:13AM 42.8747 -76.5375 83° East 259 298 9,000  Level Boston Center
10:14AM 42.8719 -76.4436 92° East 257 296 9,000  Level Boston Center
10:15AM 42.8694 -76.3358 92° East 259 298 9,000  Level Boston Center
10:16AM 42.8642 -76.2392 94° East 257 296 9,000  Level Boston Center
10:17AM 42.8611 -76.1425 92° East 258 297 9,000  Level Boston Center
10:18AM 42.8581 -76.0433 92° East 258 297 9,000  Level Boston Center
10:19AM 42.8547 -75.9553 93° East 259 298 9,000  Level Boston Center
10:20AM 42.8492 -75.8586 94° East 258 297 9,000  Level Boston Center
10:21AM 42.8442 -75.7450 93° East 257 296 9,000  Level Boston Center
10:23AM 42.8389 -75.6400 94° East 259 298 9,000  Level Boston Center
10:24AM 42.8375 -75.5408 91° East 260 299 9,000  Level Boston Center
10:24AM 42.8317 -75.4528 95° East 259 298 9,000  Level Boston Center
10:25AM 42.8278 -75.3561 93° East 259 298 9,000  Level Boston Center
10:26AM 42.8242 -75.2569 93° East 262 302 9,000  Level Boston Center
10:27AM 42.8183 -75.1519 94° East 259 298 9,000  Level Boston Center
10:28AM 42.8144 -75.0525 93° East 261 300 9,000  Level Boston Center
10:29AM 42.8103 -74.9533 93° East 263 303 9,000  Level Boston Center
10:31AM 42.8011 -74.8003 95° East 263 303 9,000  Level Boston Center
10:32AM 42.7969 -74.7008 93° East 261 300 9,000  Level Boston Center
10:33AM 42.7903 -74.6044 95° East 261 300 9,000  Level Boston Center
10:34AM 42.7842 -74.4967 94° East 261 300 9,000 -360 Level Boston Center
10:35AM 42.7817 -74.3978 92° East 265 305 8,300 -720 Descending Boston Center
10:36AM 42.7750 -74.2928 95° East 272 313 7,600 -840 Descending Boston Center
10:37AM 42.7492 -74.2128 114° Southeast 273 314 6,800 -960 Descending Boston Center
10:38AM 42.6942 -74.1406 136° Southeast 279 321 5,800 -1,080 Descending Boston Center
10:39AM 42.6347 -74.0628 136° Southeast 274 315 4,500 -900 Descending Boston Center
10:40AM 42.5814 -73.9967 138° Southeast 229 264 4,000 -420 Descending Boston Center
10:41AM 42.5344 -73.9364 137° Southeast 212 244 3,700 -300 Descending Boston Center